sensor_id;sensor_type;location;lat;lon;timestamp;temperature;humidity
11043;DHT22;5574;48.786;10.120;2022-12-10T00:01:59;2.00;99.90
11043;DHT22;5574;48.786;10.120;2022-12-10T00:04:26;2.00;99.90
11043;DHT22;5574;48.786;10.120;2022-12-10T00:06:54;2.00;99.90
11043;DHT22;5574;48.786;10.120;2022-12-10T00:09:22;2.00;99.90
11043;DHT22;5574;48.786;10.120;2022-12-10T00:11:49;2.10;99.90
11043;DHT22;5574;48.786;10.120;2022-12-10T00:14:15;2.10;99.90
11043;DHT22;5574;48.786;10.120;2022-12-10T00:16:42;2.10;99.90
11043;DHT22;5574;48.786;10.120;2022-12-10T00:19:09;2.10;99.90
11043;DHT22;5574;48.786;10.120;2022-12-10T00:21:37;2.10;99.90
11043;DHT22;5574;48.786;10.120;2022-12-10T00:24:05;2.10;99.90
11043;DHT22;5574;48.786;10.120;2022-12-10T00:26:34;2.10;99.90
11043;DHT22;5574;48.786;10.120;2022-12-10T00:29:03;2.10;99.90
11043;DHT22;5574;48.786;10.120;2022-12-10T00:31:33;2.00;99.90
11043;DHT22;5574;48.786;10.120;2022-12-10T00:34:03;2.00;99.90
11043;DHT22;5574;48.786;10.120;2022-12-10T00:36:31;2.00;99.90
11043;DHT22;5574;48.786;10.120;2022-12-10T00:38:59;2.00;99.90
11043;DHT22;5574;48.786;10.120;2022-12-10T00:41:27;2.00;99.90
11043;DHT22;5574;48.786;10.120;2022-12-10T00:43:54;2.00;99.90
11043;DHT22;5574;48.786;10.120;2022-12-10T00:46:21;1.90;99.90
11043;DHT22;5574;48.786;10.120;2022-12-10T00:48:48;1.90;99.90
11043;DHT22;5574;48.786;10.120;2022-12-10T00:51:16;1.90;99.90
11043;DHT22;5574;48.786;10.120;2022-12-10T00:53:45;1.90;99.90
11043;DHT22;5574;48.786;10.120;2022-12-10T00:56:14;1.90;99.90
11043;DHT22;5574;48.786;10.120;2022-12-10T00:58:42;2.00;99.90
11043;DHT22;5574;48.786;10.120;2022-12-10T01:01:11;1.90;99.90
11043;DHT22;5574;48.786;10.120;2022-12-10T01:03:39;2.00;99.90
11043;DHT22;5574;48.786;10.120;2022-12-10T01:06:15;1.90;99.90
11043;DHT22;5574;48.786;10.120;2022-12-10T01:08:43;2.00;99.90
11043;DHT22;5574;48.786;10.120;2022-12-10T01:11:11;2.00;99.90
11043;DHT22;5574;48.786;10.120;2022-12-10T01:13:38;1.90;99.90
11043;DHT22;5574;48.786;10.120;2022-12-10T01:16:09;1.90;99.90
11043;DHT22;5574;48.786;10.120;2022-12-10T01:18:36;2.00;99.90
11043;DHT22;5574;48.786;10.120;2022-12-10T01:21:04;2.00;99.90
11043;DHT22;5574;48.786;10.120;2022-12-10T01:23:32;1.90;99.90
11043;DHT22;5574;48.786;10.120;2022-12-10T01:26:00;1.90;99.90
11043;DHT22;5574;48.786;10.120;2022-12-10T01:28:31;1.90;99.90
11043;DHT22;5574;48.786;10.120;2022-12-10T01:31:02;1.90;99.90
11043;DHT22;5574;48.786;10.120;2022-12-10T01:33:31;1.90;99.90
11043;DHT22;5574;48.786;10.120;2022-12-10T01:36:01;1.90;99.90
11043;DHT22;5574;48.786;10.120;2022-12-10T01:38:28;1.90;99.90
11043;DHT22;5574;48.786;10.120;2022-12-10T01:40:55;1.90;99.90
11043;DHT22;5574;48.786;10.120;2022-12-10T01:43:22;1.90;99.90
11043;DHT22;5574;48.786;10.120;2022-12-10T01:45:48;1.90;99.90
11043;DHT22;5574;48.786;10.120;2022-12-10T01:48:15;2.00;99.90
11043;DHT22;5574;48.786;10.120;2022-12-10T01:50:43;2.00;99.90
11043;DHT22;5574;48.786;10.120;2022-12-10T01:53:10;2.00;99.90
11043;DHT22;5574;48.786;10.120;2022-12-10T01:55:42;2.10;99.90
11043;DHT22;5574;48.786;10.120;2022-12-10T01:58:10;2.20;99.90
11043;DHT22;5574;48.786;10.120;2022-12-10T02:00:53;2.20;99.90
11043;DHT22;5574;48.786;10.120;2022-12-10T02:03:29;2.20;99.90
11043;DHT22;5574;48.786;10.120;2022-12-10T02:06:06;2.20;99.90
11043;DHT22;5574;48.786;10.120;2022-12-10T02:08:40;2.20;99.90
11043;DHT22;5574;48.786;10.120;2022-12-10T02:11:13;2.30;99.90
11043;DHT22;5574;48.786;10.120;2022-12-10T02:13:43;2.30;99.90
11043;DHT22;5574;48.786;10.120;2022-12-10T02:16:15;2.30;99.90
11043;DHT22;5574;48.786;10.120;2022-12-10T02:18:46;2.30;99.90
11043;DHT22;5574;48.786;10.120;2022-12-10T02:21:19;2.20;99.90
11043;DHT22;5574;48.786;10.120;2022-12-10T02:23:51;2.20;99.90
11043;DHT22;5574;48.786;10.120;2022-12-10T02:26:23;2.10;99.90
11043;DHT22;5574;48.786;10.120;2022-12-10T02:29:01;2.20;99.90
11043;DHT22;5574;48.786;10.120;2022-12-10T02:31:32;2.20;99.90
11043;DHT22;5574;48.786;10.120;2022-12-10T02:34:01;2.20;99.90
11043;DHT22;5574;48.786;10.120;2022-12-10T02:36:33;2.20;99.90
11043;DHT22;5574;48.786;10.120;2022-12-10T02:39:03;2.10;99.90
11043;DHT22;5574;48.786;10.120;2022-12-10T02:41:41;2.10;99.90
11043;DHT22;5574;48.786;10.120;2022-12-10T02:44:12;2.00;99.90
11043;DHT22;5574;48.786;10.120;2022-12-10T02:46:41;2.10;99.90
11043;DHT22;5574;48.786;10.120;2022-12-10T02:49:12;2.00;99.90
11043;DHT22;5574;48.786;10.120;2022-12-10T02:51:39;2.00;99.90
11043;DHT22;5574;48.786;10.120;2022-12-10T02:56:54;2.00;99.90
11043;DHT22;5574;48.786;10.120;2022-12-10T02:59:29;2.00;99.90
11043;DHT22;5574;48.786;10.120;2022-12-10T03:02:06;2.00;99.90
11043;DHT22;5574;48.786;10.120;2022-12-10T03:04:42;2.10;99.90
11043;DHT22;5574;48.786;10.120;2022-12-10T03:07:15;2.00;99.90
11043;DHT22;5574;48.786;10.120;2022-12-10T03:09:47;2.00;99.90
11043;DHT22;5574;48.786;10.120;2022-12-10T03:12:19;2.00;99.90
11043;DHT22;5574;48.786;10.120;2022-12-10T03:14:49;2.00;99.90
11043;DHT22;5574;48.786;10.120;2022-12-10T03:17:16;2.00;99.90
11043;DHT22;5574;48.786;10.120;2022-12-10T03:19:46;2.00;99.90
11043;DHT22;5574;48.786;10.120;2022-12-10T03:22:15;1.90;99.90
11043;DHT22;5574;48.786;10.120;2022-12-10T03:24:43;1.90;99.90
11043;DHT22;5574;48.786;10.120;2022-12-10T03:27:12;1.90;99.90
11043;DHT22;5574;48.786;10.120;2022-12-10T03:29:43;1.80;99.90
11043;DHT22;5574;48.786;10.120;2022-12-10T03:32:13;1.90;99.90
11043;DHT22;5574;48.786;10.120;2022-12-10T03:34:41;1.90;99.90
11043;DHT22;5574;48.786;10.120;2022-12-10T03:37:09;1.90;99.90
11043;DHT22;5574;48.786;10.120;2022-12-10T03:39:37;1.90;99.90
11043;DHT22;5574;48.786;10.120;2022-12-10T03:42:04;1.90;99.90
11043;DHT22;5574;48.786;10.120;2022-12-10T03:44:32;1.90;99.90
11043;DHT22;5574;48.786;10.120;2022-12-10T03:47:00;1.90;99.90
11043;DHT22;5574;48.786;10.120;2022-12-10T03:49:29;1.90;99.90
11043;DHT22;5574;48.786;10.120;2022-12-10T03:51:56;1.90;99.90
11043;DHT22;5574;48.786;10.120;2022-12-10T03:54:22;1.90;99.90
11043;DHT22;5574;48.786;10.120;2022-12-10T03:56:49;1.90;99.90
11043;DHT22;5574;48.786;10.120;2022-12-10T03:59:16;1.90;99.90
11043;DHT22;5574;48.786;10.120;2022-12-10T04:01:42;2.00;99.90
11043;DHT22;5574;48.786;10.120;2022-12-10T04:04:09;2.00;99.90
11043;DHT22;5574;48.786;10.120;2022-12-10T04:06:39;1.90;99.90
11043;DHT22;5574;48.786;10.120;2022-12-10T04:09:08;1.90;99.90
11043;DHT22;5574;48.786;10.120;2022-12-10T04:11:35;1.90;99.90
11043;DHT22;5574;48.786;10.120;2022-12-10T04:14:02;1.80;99.90
11043;DHT22;5574;48.786;10.120;2022-12-10T04:16:46;1.90;99.90
11043;DHT22;5574;48.786;10.120;2022-12-10T04:19:15;1.90;99.90
11043;DHT22;5574;48.786;10.120;2022-12-10T04:21:44;1.80;99.90
11043;DHT22;5574;48.786;10.120;2022-12-10T04:24:30;1.80;99.90
11043;DHT22;5574;48.786;10.120;2022-12-10T04:27:19;1.80;99.90
11043;DHT22;5574;48.786;10.120;2022-12-10T04:29:46;1.90;99.90
11043;DHT22;5574;48.786;10.120;2022-12-10T04:32:13;1.80;99.90
11043;DHT22;5574;48.786;10.120;2022-12-10T04:34:40;1.80;99.90
11043;DHT22;5574;48.786;10.120;2022-12-10T04:37:08;1.80;99.90
11043;DHT22;5574;48.786;10.120;2022-12-10T04:39:36;1.80;99.90
11043;DHT22;5574;48.786;10.120;2022-12-10T04:42:04;1.80;99.90
11043;DHT22;5574;48.786;10.120;2022-12-10T04:44:31;1.80;99.90
11043;DHT22;5574;48.786;10.120;2022-12-10T04:46:58;1.80;99.90
11043;DHT22;5574;48.786;10.120;2022-12-10T04:49:25;1.80;99.90
11043;DHT22;5574;48.786;10.120;2022-12-10T04:51:52;1.80;99.90
11043;DHT22;5574;48.786;10.120;2022-12-10T04:54:22;1.80;99.90
11043;DHT22;5574;48.786;10.120;2022-12-10T04:56:48;1.90;99.90
11043;DHT22;5574;48.786;10.120;2022-12-10T04:59:15;1.90;99.90
11043;DHT22;5574;48.786;10.120;2022-12-10T05:01:42;2.00;99.90
11043;DHT22;5574;48.786;10.120;2022-12-10T05:04:11;2.00;99.90
11043;DHT22;5574;48.786;10.120;2022-12-10T05:06:39;2.00;99.90
11043;DHT22;5574;48.786;10.120;2022-12-10T05:09:05;2.00;99.90
11043;DHT22;5574;48.786;10.120;2022-12-10T05:11:34;2.00;99.90
11043;DHT22;5574;48.786;10.120;2022-12-10T05:14:02;2.00;99.90
11043;DHT22;5574;48.786;10.120;2022-12-10T05:16:30;2.00;99.90
11043;DHT22;5574;48.786;10.120;2022-12-10T05:18:58;2.10;99.90
11043;DHT22;5574;48.786;10.120;2022-12-10T05:21:26;2.10;99.90
11043;DHT22;5574;48.786;10.120;2022-12-10T05:24:14;2.10;99.90
11043;DHT22;5574;48.786;10.120;2022-12-10T05:26:41;2.10;99.90
11043;DHT22;5574;48.786;10.120;2022-12-10T05:29:09;2.10;99.90
11043;DHT22;5574;48.786;10.120;2022-12-10T05:31:36;2.20;99.90
11043;DHT22;5574;48.786;10.120;2022-12-10T05:34:02;2.10;99.90
11043;DHT22;5574;48.786;10.120;2022-12-10T05:36:30;2.20;99.90
11043;DHT22;5574;48.786;10.120;2022-12-10T05:38:58;2.20;99.90
11043;DHT22;5574;48.786;10.120;2022-12-10T05:41:27;2.10;99.90
11043;DHT22;5574;48.786;10.120;2022-12-10T05:43:57;2.10;99.90
11043;DHT22;5574;48.786;10.120;2022-12-10T05:46:25;2.00;99.90
11043;DHT22;5574;48.786;10.120;2022-12-10T05:48:53;2.00;99.90
11043;DHT22;5574;48.786;10.120;2022-12-10T05:51:21;2.00;99.90
11043;DHT22;5574;48.786;10.120;2022-12-10T05:53:48;2.00;99.90
11043;DHT22;5574;48.786;10.120;2022-12-10T05:56:17;2.00;99.90
11043;DHT22;5574;48.786;10.120;2022-12-10T05:58:46;2.00;99.90
11043;DHT22;5574;48.786;10.120;2022-12-10T06:01:16;2.00;99.90
11043;DHT22;5574;48.786;10.120;2022-12-10T06:03:42;2.00;99.90
11043;DHT22;5574;48.786;10.120;2022-12-10T06:06:10;1.90;99.90
11043;DHT22;5574;48.786;10.120;2022-12-10T06:08:37;1.90;99.90
11043;DHT22;5574;48.786;10.120;2022-12-10T06:11:05;1.90;99.90
11043;DHT22;5574;48.786;10.120;2022-12-10T06:13:32;2.00;99.90
11043;DHT22;5574;48.786;10.120;2022-12-10T06:15:59;1.90;99.90
11043;DHT22;5574;48.786;10.120;2022-12-10T06:18:27;1.90;99.90
11043;DHT22;5574;48.786;10.120;2022-12-10T06:20:54;1.90;99.90
11043;DHT22;5574;48.786;10.120;2022-12-10T06:23:20;1.90;99.90
11043;DHT22;5574;48.786;10.120;2022-12-10T06:25:47;1.90;99.90
11043;DHT22;5574;48.786;10.120;2022-12-10T06:28:14;1.90;99.90
11043;DHT22;5574;48.786;10.120;2022-12-10T06:30:41;1.90;99.90
11043;DHT22;5574;48.786;10.120;2022-12-10T06:33:07;1.90;99.90
11043;DHT22;5574;48.786;10.120;2022-12-10T06:35:37;1.90;99.90
11043;DHT22;5574;48.786;10.120;2022-12-10T06:38:03;1.80;99.90
11043;DHT22;5574;48.786;10.120;2022-12-10T06:40:30;1.90;99.90
11043;DHT22;5574;48.786;10.120;2022-12-10T06:42:57;1.90;99.90
11043;DHT22;5574;48.786;10.120;2022-12-10T06:45:23;1.90;99.90
11043;DHT22;5574;48.786;10.120;2022-12-10T06:47:50;1.90;99.90
11043;DHT22;5574;48.786;10.120;2022-12-10T06:50:17;2.00;99.90
11043;DHT22;5574;48.786;10.120;2022-12-10T06:52:45;2.00;99.90
11043;DHT22;5574;48.786;10.120;2022-12-10T06:55:12;1.90;99.90
11043;DHT22;5574;48.786;10.120;2022-12-10T06:57:39;1.90;99.90
11043;DHT22;5574;48.786;10.120;2022-12-10T07:00:06;1.90;99.90
11043;DHT22;5574;48.786;10.120;2022-12-10T07:02:33;1.80;99.90
11043;DHT22;5574;48.786;10.120;2022-12-10T07:05:00;1.80;99.90
11043;DHT22;5574;48.786;10.120;2022-12-10T07:07:27;1.80;99.90
11043;DHT22;5574;48.786;10.120;2022-12-10T07:09:55;1.80;99.90
11043;DHT22;5574;48.786;10.120;2022-12-10T07:12:22;1.80;99.90
11043;DHT22;5574;48.786;10.120;2022-12-10T07:14:48;1.80;99.90
11043;DHT22;5574;48.786;10.120;2022-12-10T07:17:15;1.90;99.90
11043;DHT22;5574;48.786;10.120;2022-12-10T07:19:42;1.90;99.90
11043;DHT22;5574;48.786;10.120;2022-12-10T07:22:09;1.90;99.90
11043;DHT22;5574;48.786;10.120;2022-12-10T07:24:36;1.90;99.90
11043;DHT22;5574;48.786;10.120;2022-12-10T07:27:06;1.90;99.90
11043;DHT22;5574;48.786;10.120;2022-12-10T07:29:33;1.90;99.90
11043;DHT22;5574;48.786;10.120;2022-12-10T07:32:00;1.90;99.90
11043;DHT22;5574;48.786;10.120;2022-12-10T07:34:27;1.90;99.90
11043;DHT22;5574;48.786;10.120;2022-12-10T07:36:54;1.90;99.90
11043;DHT22;5574;48.786;10.120;2022-12-10T07:39:21;1.90;99.90
11043;DHT22;5574;48.786;10.120;2022-12-10T07:41:48;2.00;99.90
11043;DHT22;5574;48.786;10.120;2022-12-10T07:44:18;2.00;99.90
11043;DHT22;5574;48.786;10.120;2022-12-10T07:46:46;2.10;99.90
11043;DHT22;5574;48.786;10.120;2022-12-10T07:49:14;2.10;99.90
11043;DHT22;5574;48.786;10.120;2022-12-10T07:51:44;2.10;99.90
11043;DHT22;5574;48.786;10.120;2022-12-10T07:54:11;2.10;99.90
11043;DHT22;5574;48.786;10.120;2022-12-10T07:56:37;2.10;99.90
11043;DHT22;5574;48.786;10.120;2022-12-10T07:59:04;2.00;99.90
11043;DHT22;5574;48.786;10.120;2022-12-10T08:01:32;2.00;99.90
11043;DHT22;5574;48.786;10.120;2022-12-10T08:03:59;2.00;99.90
11043;DHT22;5574;48.786;10.120;2022-12-10T08:06:27;2.00;99.90
11043;DHT22;5574;48.786;10.120;2022-12-10T08:08:55;1.90;99.90
11043;DHT22;5574;48.786;10.120;2022-12-10T08:11:22;2.00;99.90
11043;DHT22;5574;48.786;10.120;2022-12-10T08:13:49;2.00;99.90
11043;DHT22;5574;48.786;10.120;2022-12-10T08:16:18;2.00;99.90
11043;DHT22;5574;48.786;10.120;2022-12-10T08:18:46;2.00;99.90
11043;DHT22;5574;48.786;10.120;2022-12-10T08:21:15;2.00;99.90
11043;DHT22;5574;48.786;10.120;2022-12-10T08:23:42;2.00;99.90
11043;DHT22;5574;48.786;10.120;2022-12-10T08:26:10;2.00;99.90
11043;DHT22;5574;48.786;10.120;2022-12-10T08:28:38;1.90;99.90
11043;DHT22;5574;48.786;10.120;2022-12-10T08:31:07;1.90;99.90
11043;DHT22;5574;48.786;10.120;2022-12-10T08:33:35;1.90;99.90
11043;DHT22;5574;48.786;10.120;2022-12-10T08:36:04;1.90;99.90
11043;DHT22;5574;48.786;10.120;2022-12-10T08:38:31;1.90;99.90
11043;DHT22;5574;48.786;10.120;2022-12-10T08:40:58;1.90;99.90
11043;DHT22;5574;48.786;10.120;2022-12-10T08:43:25;1.90;99.90
11043;DHT22;5574;48.786;10.120;2022-12-10T08:45:52;2.00;99.90
11043;DHT22;5574;48.786;10.120;2022-12-10T08:48:19;1.90;99.90
11043;DHT22;5574;48.786;10.120;2022-12-10T08:50:46;2.00;99.90
11043;DHT22;5574;48.786;10.120;2022-12-10T08:53:14;2.00;99.90
11043;DHT22;5574;48.786;10.120;2022-12-10T08:55:41;2.10;99.90
11043;DHT22;5574;48.786;10.120;2022-12-10T08:58:09;2.10;99.90
11043;DHT22;5574;48.786;10.120;2022-12-10T09:00:36;2.10;99.90
11043;DHT22;5574;48.786;10.120;2022-12-10T09:03:03;2.20;99.90
11043;DHT22;5574;48.786;10.120;2022-12-10T09:05:29;2.20;99.90
11043;DHT22;5574;48.786;10.120;2022-12-10T09:07:56;2.10;99.90
11043;DHT22;5574;48.786;10.120;2022-12-10T09:10:24;2.10;99.90
11043;DHT22;5574;48.786;10.120;2022-12-10T09:12:51;2.00;99.90
11043;DHT22;5574;48.786;10.120;2022-12-10T09:15:18;2.00;99.90
11043;DHT22;5574;48.786;10.120;2022-12-10T09:17:45;2.00;99.90
11043;DHT22;5574;48.786;10.120;2022-12-10T09:20:12;1.90;99.90
11043;DHT22;5574;48.786;10.120;2022-12-10T09:22:39;2.00;99.90
11043;DHT22;5574;48.786;10.120;2022-12-10T09:25:07;1.90;99.90
11043;DHT22;5574;48.786;10.120;2022-12-10T09:27:36;1.90;99.90
11043;DHT22;5574;48.786;10.120;2022-12-10T09:30:04;2.00;99.90
11043;DHT22;5574;48.786;10.120;2022-12-10T09:32:31;2.00;99.90
11043;DHT22;5574;48.786;10.120;2022-12-10T09:34:58;2.00;99.90
11043;DHT22;5574;48.786;10.120;2022-12-10T09:37:25;2.10;99.90
11043;DHT22;5574;48.786;10.120;2022-12-10T09:39:51;2.10;99.90
11043;DHT22;5574;48.786;10.120;2022-12-10T09:42:30;2.10;99.90
11043;DHT22;5574;48.786;10.120;2022-12-10T09:45:09;2.30;99.90
11043;DHT22;5574;48.786;10.120;2022-12-10T09:47:42;2.20;99.90
11043;DHT22;5574;48.786;10.120;2022-12-10T09:50:18;2.20;99.90
11043;DHT22;5574;48.786;10.120;2022-12-10T09:52:46;2.20;99.90
11043;DHT22;5574;48.786;10.120;2022-12-10T09:55:17;2.20;99.90
11043;DHT22;5574;48.786;10.120;2022-12-10T09:57:47;2.30;99.90
11043;DHT22;5574;48.786;10.120;2022-12-10T10:00:22;2.20;99.90
11043;DHT22;5574;48.786;10.120;2022-12-10T10:02:49;2.40;99.90
11043;DHT22;5574;48.786;10.120;2022-12-10T10:05:21;2.40;99.90
11043;DHT22;5574;48.786;10.120;2022-12-10T10:07:51;2.40;99.90
11043;DHT22;5574;48.786;10.120;2022-12-10T10:10:23;2.40;99.90
11043;DHT22;5574;48.786;10.120;2022-12-10T10:12:52;2.40;99.90
11043;DHT22;5574;48.786;10.120;2022-12-10T10:15:24;2.40;99.90
11043;DHT22;5574;48.786;10.120;2022-12-10T10:17:53;2.40;99.90
11043;DHT22;5574;48.786;10.120;2022-12-10T10:20:21;2.40;99.90
11043;DHT22;5574;48.786;10.120;2022-12-10T10:22:48;2.40;99.90
11043;DHT22;5574;48.786;10.120;2022-12-10T10:25:16;2.40;99.90
11043;DHT22;5574;48.786;10.120;2022-12-10T10:27:44;2.30;99.90
11043;DHT22;5574;48.786;10.120;2022-12-10T10:30:14;2.20;99.90
11043;DHT22;5574;48.786;10.120;2022-12-10T10:32:48;2.20;99.90
11043;DHT22;5574;48.786;10.120;2022-12-10T10:35:22;2.30;99.90
11043;DHT22;5574;48.786;10.120;2022-12-10T10:37:50;2.30;99.90
11043;DHT22;5574;48.786;10.120;2022-12-10T10:40:22;2.50;99.90
11043;DHT22;5574;48.786;10.120;2022-12-10T10:42:52;2.60;99.90
11043;DHT22;5574;48.786;10.120;2022-12-10T10:45:38;2.90;99.90
11043;DHT22;5574;48.786;10.120;2022-12-10T10:48:11;3.20;99.90
11043;DHT22;5574;48.786;10.120;2022-12-10T10:50:41;3.30;99.90
11043;DHT22;5574;48.786;10.120;2022-12-10T10:53:26;3.20;99.90
11043;DHT22;5574;48.786;10.120;2022-12-10T10:55:55;3.20;99.90
11043;DHT22;5574;48.786;10.120;2022-12-10T10:58:24;3.10;99.90
11043;DHT22;5574;48.786;10.120;2022-12-10T11:00:59;3.00;99.90
11043;DHT22;5574;48.786;10.120;2022-12-10T11:03:29;2.90;99.90
11043;DHT22;5574;48.786;10.120;2022-12-10T11:05:58;2.70;99.90
11043;DHT22;5574;48.786;10.120;2022-12-10T11:08:28;3.10;99.90
11043;DHT22;5574;48.786;10.120;2022-12-10T11:10:58;3.40;99.90
11043;DHT22;5574;48.786;10.120;2022-12-10T11:13:29;3.60;99.90
11043;DHT22;5574;48.786;10.120;2022-12-10T11:15:59;3.60;99.90
11043;DHT22;5574;48.786;10.120;2022-12-10T11:18:32;3.60;99.90
11043;DHT22;5574;48.786;10.120;2022-12-10T11:21:05;3.50;99.90
11043;DHT22;5574;48.786;10.120;2022-12-10T11:23:37;3.20;99.90
11043;DHT22;5574;48.786;10.120;2022-12-10T11:26:15;3.30;99.90
11043;DHT22;5574;48.786;10.120;2022-12-10T11:28:54;3.50;99.90
11043;DHT22;5574;48.786;10.120;2022-12-10T11:31:35;3.20;99.90
11043;DHT22;5574;48.786;10.120;2022-12-10T11:34:12;3.30;99.90
11043;DHT22;5574;48.786;10.120;2022-12-10T11:36:46;3.50;99.90
11043;DHT22;5574;48.786;10.120;2022-12-10T11:39:29;3.60;99.90
11043;DHT22;5574;48.786;10.120;2022-12-10T11:42:03;3.80;99.90
11043;DHT22;5574;48.786;10.120;2022-12-10T11:44:35;4.00;99.90
11043;DHT22;5574;48.786;10.120;2022-12-10T11:47:18;4.20;99.90
11043;DHT22;5574;48.786;10.120;2022-12-10T11:50:02;3.90;99.90
11043;DHT22;5574;48.786;10.120;2022-12-10T11:52:42;3.80;99.90
11043;DHT22;5574;48.786;10.120;2022-12-10T11:55:20;3.70;99.90
11043;DHT22;5574;48.786;10.120;2022-12-10T11:57:56;3.80;99.90
11043;DHT22;5574;48.786;10.120;2022-12-10T12:00:42;3.90;99.90
11043;DHT22;5574;48.786;10.120;2022-12-10T12:03:29;3.90;99.90
11043;DHT22;5574;48.786;10.120;2022-12-10T12:06:24;4.10;99.90
11043;DHT22;5574;48.786;10.120;2022-12-10T12:09:04;4.20;99.90
11043;DHT22;5574;48.786;10.120;2022-12-10T12:11:51;4.30;99.90
11043;DHT22;5574;48.786;10.120;2022-12-10T12:14:25;4.40;99.90
11043;DHT22;5574;48.786;10.120;2022-12-10T12:17:00;4.50;99.90
11043;DHT22;5574;48.786;10.120;2022-12-10T12:19:33;4.60;99.90
11043;DHT22;5574;48.786;10.120;2022-12-10T12:22:09;4.60;99.90
11043;DHT22;5574;48.786;10.120;2022-12-10T12:24:40;4.70;99.90
11043;DHT22;5574;48.786;10.120;2022-12-10T12:27:13;4.60;99.90
11043;DHT22;5574;48.786;10.120;2022-12-10T12:29:45;4.60;99.90
11043;DHT22;5574;48.786;10.120;2022-12-10T12:32:19;4.70;99.90
11043;DHT22;5574;48.786;10.120;2022-12-10T12:34:50;4.80;99.90
11043;DHT22;5574;48.786;10.120;2022-12-10T12:37:22;4.80;99.90
11043;DHT22;5574;48.786;10.120;2022-12-10T12:39:57;4.80;99.90
11043;DHT22;5574;48.786;10.120;2022-12-10T12:42:29;4.70;99.90
11043;DHT22;5574;48.786;10.120;2022-12-10T12:45:01;4.60;99.90
11043;DHT22;5574;48.786;10.120;2022-12-10T12:47:34;4.70;99.90
11043;DHT22;5574;48.786;10.120;2022-12-10T12:50:04;4.70;99.90
11043;DHT22;5574;48.786;10.120;2022-12-10T12:52:40;4.70;99.90
11043;DHT22;5574;48.786;10.120;2022-12-10T12:55:17;4.60;99.90
11043;DHT22;5574;48.786;10.120;2022-12-10T12:57:49;4.60;99.90
11043;DHT22;5574;48.786;10.120;2022-12-10T13:00:19;4.60;99.90
11043;DHT22;5574;48.786;10.120;2022-12-10T13:02:55;4.70;99.90
11043;DHT22;5574;48.786;10.120;2022-12-10T13:05:27;4.70;99.90
11043;DHT22;5574;48.786;10.120;2022-12-10T13:08:28;4.70;99.90
11043;DHT22;5574;48.786;10.120;2022-12-10T13:10:58;4.60;99.90
11043;DHT22;5574;48.786;10.120;2022-12-10T13:13:31;4.60;99.90
11043;DHT22;5574;48.786;10.120;2022-12-10T13:19:16;4.60;99.90
11043;DHT22;5574;48.786;10.120;2022-12-10T13:21:58;4.60;99.90
11043;DHT22;5574;48.786;10.120;2022-12-10T13:24:45;4.60;99.90
11043;DHT22;5574;48.786;10.120;2022-12-10T13:27:17;4.60;99.90
11043;DHT22;5574;48.786;10.120;2022-12-10T13:29:46;4.60;99.90
11043;DHT22;5574;48.786;10.120;2022-12-10T13:32:20;4.50;99.90
11043;DHT22;5574;48.786;10.120;2022-12-10T13:37:57;4.50;99.90
11043;DHT22;5574;48.786;10.120;2022-12-10T13:40:38;4.50;99.90
11043;DHT22;5574;48.786;10.120;2022-12-10T13:43:27;4.50;99.90
11043;DHT22;5574;48.786;10.120;2022-12-10T13:46:31;4.50;99.90
11043;DHT22;5574;48.786;10.120;2022-12-10T13:48:59;4.40;99.90
11043;DHT22;5574;48.786;10.120;2022-12-10T13:51:43;4.40;99.90
11043;DHT22;5574;48.786;10.120;2022-12-10T13:54:35;4.30;99.90
11043;DHT22;5574;48.786;10.120;2022-12-10T13:57:15;4.30;99.90
11043;DHT22;5574;48.786;10.120;2022-12-10T13:59:47;4.30;99.90
11043;DHT22;5574;48.786;10.120;2022-12-10T14:05:43;4.40;99.90
11043;DHT22;5574;48.786;10.120;2022-12-10T14:08:15;4.30;99.90
11043;DHT22;5574;48.786;10.120;2022-12-10T14:10:45;4.40;99.90
11043;DHT22;5574;48.786;10.120;2022-12-10T14:13:15;4.50;99.90
11043;DHT22;5574;48.786;10.120;2022-12-10T14:15:49;4.60;99.90
11043;DHT22;5574;48.786;10.120;2022-12-10T14:18:17;4.40;99.90
11043;DHT22;5574;48.786;10.120;2022-12-10T14:20:46;4.50;99.90
11043;DHT22;5574;48.786;10.120;2022-12-10T14:23:24;4.40;99.90
11043;DHT22;5574;48.786;10.120;2022-12-10T14:26:05;4.40;99.90
11043;DHT22;5574;48.786;10.120;2022-12-10T14:28:36;4.30;99.90
11043;DHT22;5574;48.786;10.120;2022-12-10T14:31:07;4.30;99.90
11043;DHT22;5574;48.786;10.120;2022-12-10T14:33:37;4.40;99.90
11043;DHT22;5574;48.786;10.120;2022-12-10T14:36:04;4.30;99.90
11043;DHT22;5574;48.786;10.120;2022-12-10T14:38:33;4.40;99.90
11043;DHT22;5574;48.786;10.120;2022-12-10T14:41:02;4.30;99.90
11043;DHT22;5574;48.786;10.120;2022-12-10T14:43:34;4.00;99.90
11043;DHT22;5574;48.786;10.120;2022-12-10T14:46:03;3.80;99.90
11043;DHT22;5574;48.786;10.120;2022-12-10T14:48:30;3.60;99.90
11043;DHT22;5574;48.786;10.120;2022-12-10T14:51:12;3.70;99.90
11043;DHT22;5574;48.786;10.120;2022-12-10T14:53:40;3.60;99.90
11043;DHT22;5574;48.786;10.120;2022-12-10T14:56:07;3.60;99.90
11043;DHT22;5574;48.786;10.120;2022-12-10T14:58:40;3.50;99.90
11043;DHT22;5574;48.786;10.120;2022-12-10T15:01:13;3.40;99.90
11043;DHT22;5574;48.786;10.120;2022-12-10T15:03:44;3.40;99.90
11043;DHT22;5574;48.786;10.120;2022-12-10T15:06:14;3.50;99.90
11043;DHT22;5574;48.786;10.120;2022-12-10T15:08:42;3.60;99.90
11043;DHT22;5574;48.786;10.120;2022-12-10T15:11:15;3.50;99.90
11043;DHT22;5574;48.786;10.120;2022-12-10T15:13:46;3.50;99.90
11043;DHT22;5574;48.786;10.120;2022-12-10T15:16:17;3.50;99.90
11043;DHT22;5574;48.786;10.120;2022-12-10T15:18:44;3.50;99.90
11043;DHT22;5574;48.786;10.120;2022-12-10T15:21:14;3.50;99.90
11043;DHT22;5574;48.786;10.120;2022-12-10T15:23:44;3.60;99.90
11043;DHT22;5574;48.786;10.120;2022-12-10T15:26:22;3.70;99.90
11043;DHT22;5574;48.786;10.120;2022-12-10T15:28:52;3.60;99.90
11043;DHT22;5574;48.786;10.120;2022-12-10T15:31:22;3.60;99.90
11043;DHT22;5574;48.786;10.120;2022-12-10T15:33:57;3.70;99.90
11043;DHT22;5574;48.786;10.120;2022-12-10T15:36:29;3.70;99.90
11043;DHT22;5574;48.786;10.120;2022-12-10T15:39:02;3.60;99.90
11043;DHT22;5574;48.786;10.120;2022-12-10T15:41:42;3.40;99.90
11043;DHT22;5574;48.786;10.120;2022-12-10T15:44:26;3.40;99.90
11043;DHT22;5574;48.786;10.120;2022-12-10T15:46:59;3.30;99.90
11043;DHT22;5574;48.786;10.120;2022-12-10T15:49:27;3.20;99.90
11043;DHT22;5574;48.786;10.120;2022-12-10T15:51:54;3.20;99.90
11043;DHT22;5574;48.786;10.120;2022-12-10T15:54:23;3.20;99.90
11043;DHT22;5574;48.786;10.120;2022-12-10T15:56:52;3.10;99.90
11043;DHT22;5574;48.786;10.120;2022-12-10T15:59:20;3.10;99.90
11043;DHT22;5574;48.786;10.120;2022-12-10T16:01:47;3.10;99.90
11043;DHT22;5574;48.786;10.120;2022-12-10T16:04:14;2.90;99.90
11043;DHT22;5574;48.786;10.120;2022-12-10T16:06:41;2.80;99.90
11043;DHT22;5574;48.786;10.120;2022-12-10T16:09:08;2.80;99.90
11043;DHT22;5574;48.786;10.120;2022-12-10T16:11:35;2.80;99.90
11043;DHT22;5574;48.786;10.120;2022-12-10T16:14:01;2.80;99.90
11043;DHT22;5574;48.786;10.120;2022-12-10T16:16:30;2.70;99.90
11043;DHT22;5574;48.786;10.120;2022-12-10T16:18:56;2.80;99.90